Time;durP1;ratioP1;P1;durP2;ratioP2;P2;SDS_P1;SDS_P2;PMS_P1;PMS_P2;Temp;Humidity;BMP_temperature;BMP_pressure;BME280_temperature;BME280_humidity;BME280_pressure;Samples;Min_cycle;Max_cycle;Signal;HPM_P1;HPM_P2
2022/01/10 00:01:58;;;;;;;75.17;29.87;;;;;;;-7.19;100.00;99324.44;6323466;28;20047;-71
2022/01/10 00:04:58;;;;;;;72.68;25.42;;;;;;;-7.22;100.00;99310.09;6321795;28;20293;-72
2022/01/10 00:08:02;;;;;;;68.53;24.92;;;;;;;-7.20;100.00;99312.63;6305378;28;20105;-72
2022/01/10 00:11:03;;;;;;;72.70;26.45;;;;;;;-7.09;100.00;99316.81;6289315;28;20151;-72
2022/01/10 00:14:03;;;;;;;61.53;21.85;;;;;;;-7.10;100.00;99317.69;6323302;28;20471;-67
2022/01/10 00:17:04;;;;;;;50.40;18.45;;;;;;;-7.17;100.00;99315.97;6321929;28;20472;-68
2022/01/10 00:20:08;;;;;;;56.15;24.10;;;;;;;-7.09;100.00;99321.88;6321867;28;20116;-68
2022/01/10 00:23:10;;;;;;;61.95;26.23;;;;;;;-7.01;100.00;99316.81;6323172;28;20039;-72
2022/01/10 00:26:11;;;;;;;68.57;24.17;;;;;;;-6.97;100.00;99315.13;6304866;28;20048;-72
2022/01/10 00:29:12;;;;;;;72.32;24.85;;;;;;;-6.99;100.00;99317.66;6321887;28;20483;-68
2022/01/10 00:32:13;;;;;;;61.08;23.52;;;;;;;-7.04;100.00;99324.44;6322841;28;20040;-69
2022/01/10 00:35:14;;;;;;;64.35;23.25;;;;;;;-7.15;100.00;99323.59;6321424;28;20139;-67
2022/01/10 00:38:15;;;;;;;78.82;25.10;;;;;;;-7.08;100.00;99325.28;6321548;28;20063;-67
2022/01/10 00:41:15;;;;;;;56.63;22.92;;;;;;;-7.20;100.00;99316.00;6322821;28;20487;-67
2022/01/10 00:44:16;;;;;;;43.72;21.50;;;;;;;-7.24;100.00;99318.53;6320837;28;20040;-72
2022/01/10 00:47:18;;;;;;;64.47;24.48;;;;;;;-7.17;100.00;99323.59;6321699;28;20051;-72
2022/01/10 00:50:20;;;;;;;85.23;28.77;;;;;;;-7.13;100.00;99332.03;6320500;28;20060;-68
2022/01/10 00:53:20;;;;;;;65.20;27.20;;;;;;;-7.20;100.00;99322.78;6321727;28;20284;-72
2022/01/10 00:56:21;;;;;;;65.55;24.50;;;;;;;-7.03;100.00;99320.22;6321346;28;20310;-72
2022/01/10 00:59:22;;;;;;;59.80;26.52;;;;;;;-6.92;100.00;99319.34;6303543;28;20067;-72
2022/01/10 01:02:26;;;;;;;56.35;25.08;;;;;;;-6.89;100.00;99323.56;6321659;28;20050;-72
2022/01/10 01:05:29;;;;;;;60.10;25.02;;;;;;;-6.73;100.00;99327.75;6321657;28;20480;-71
2022/01/10 01:08:32;;;;;;;60.72;23.30;;;;;;;-6.60;100.00;99333.63;6321806;28;20372;-72
2022/01/10 01:14:55;;;;;;;49.72;22.90;;;;;;;-6.86;100.00;99332.84;6321412;28;20051;-67
2022/01/10 01:24:31;;;;;;;47.30;20.15;;;;;;;-7.16;100.00;99315.16;6321331;28;20040;-72
2022/01/10 01:27:32;;;;;;;;;;;;;;;-7.13;100.00;99309.22;6321681;28;20040;-71
2022/01/10 01:30:33;;;;;;;46.45;21.55;;;;;;;-6.96;100.00;99315.13;6319530;28;20276;-72
2022/01/10 01:33:33;;;;;;;49.55;22.20;;;;;;;-6.91;100.00;99320.19;6320551;28;20051;-72
2022/01/10 01:36:35;;;;;;;52.50;24.13;;;;;;;-6.92;100.00;99326.09;6319500;28;20047;-72
2022/01/10 01:39:36;;;;;;;56.83;23.20;;;;;;;-6.98;100.00;99323.56;6320254;28;20044;-68
2022/01/10 01:42:40;;;;;;;58.65;23.73;;;;;;;-7.10;100.00;99317.69;6321640;28;20051;-71
2022/01/10 01:45:47;;;;;;;53.53;24.13;;;;;;;-7.10;100.00;99329.53;6320108;28;20044;-72
2022/01/10 01:48:50;;;;;;;35.60;19.38;;;;;;;-7.12;100.00;99318.53;6321291;28;20483;-71
2022/01/10 01:51:50;;;;;;;;;;;;;;;-7.14;100.00;99317.69;6320718;28;20055;-68
2022/01/10 01:54:51;;;;;;;49.80;21.40;;;;;;;-7.23;100.00;99315.16;6321374;28;19956;-72
2022/01/10 01:57:53;;;;;;;37.53;19.05;;;;;;;-7.25;100.00;99319.38;6320605;28;20093;-72
2022/01/10 02:00:54;;;;;;;39.65;17.83;;;;;;;-7.35;100.00;99326.13;6321131;28;20044;-68
2022/01/10 02:03:55;;;;;;;43.78;18.92;;;;;;;-7.47;100.00;99316.00;6321260;28;20064;-72
2022/01/10 02:06:56;;;;;;;35.60;18.48;;;;;;;-7.51;100.00;99322.78;6338758;28;20054;-72
2022/01/10 02:09:56;;;;;;;39.58;18.90;;;;;;;-7.59;100.00;99324.47;6326157;28;20093;-72
2022/01/10 02:12:57;;;;;;;38.67;18.15;;;;;;;-7.47;100.00;99321.94;6326376;28;20113;-72
2022/01/10 02:16:01;;;;;;;30.48;13.25;;;;;;;-7.57;100.00;99325.31;6326062;28;20538;-72
2022/01/10 02:19:03;;;;;;;21.77;12.00;;;;;;;-7.73;100.00;99309.25;6326245;28;20379;-68
2022/01/10 02:22:03;;;;;;;36.13;17.05;;;;;;;-7.72;100.00;99310.91;6326197;28;20074;-68
2022/01/10 02:25:05;;;;;;;33.97;16.83;;;;;;;-7.72;100.00;99311.78;6325914;28;20116;-68
2022/01/10 02:28:06;;;;;;;47.30;18.42;;;;;;;-7.60;100.00;99320.22;6325694;28;20039;-68
2022/01/10 02:31:07;;;;;;;43.95;19.08;;;;;;;-7.65;100.00;99321.91;6325946;28;20126;-71
2022/01/10 02:34:09;;;;;;;35.90;15.48;;;;;;;-7.67;100.00;99318.53;6341629;28;20044;-67
2022/01/10 02:37:10;;;;;;;40.97;18.77;;;;;;;-7.56;100.00;99325.28;6307686;28;20074;-68
2022/01/10 02:40:14;;;;;;;45.72;20.25;;;;;;;-7.59;100.00;99320.22;6324567;28;20044;-67
2022/01/10 02:43:14;;;;;;;34.65;15.05;;;;;;;-7.68;100.00;99320.22;6324138;28;20040;-72
2022/01/10 02:46:15;;;;;;;45.13;19.17;;;;;;;-7.81;100.00;99316.81;6307360;28;20051;-72
2022/01/10 02:49:24;;;;;;;37.33;17.48;;;;;;;-7.77;100.00;99323.59;6323995;28;20087;-68
2022/01/10 02:52:25;;;;;;;39.53;17.65;;;;;;;-7.74;100.00;99330.34;6324065;28;20060;-72
2022/01/10 02:55:26;;;;;;;27.42;13.07;;;;;;;-7.81;100.00;99332.03;6325216;28;20149;-72
2022/01/10 02:58:27;;;;;;;21.98;12.38;;;;;;;-7.84;100.00;99333.69;6323847;28;20098;-68
2022/01/10 03:01:28;;;;;;;39.17;15.57;;;;;;;-7.92;100.00;99324.41;6323849;28;20123;-68
2022/01/10 03:04:28;;;;;;;36.22;17.08;;;;;;;-7.98;100.00;99324.41;6323514;28;20044;-67
2022/01/10 03:07:29;;;;;;;30.30;13.63;;;;;;;-8.18;100.00;99318.44;6323442;28;20063;-68
2022/01/10 03:10:31;;;;;;;36.95;15.98;;;;;;;-8.08;100.00;99322.69;6323467;28;20105;-67
2022/01/10 03:13:31;;;;;;;30.80;14.57;;;;;;;-7.91;100.00;99335.38;6324783;28;20047;-72
2022/01/10 03:16:32;;;;;;;53.05;19.95;;;;;;;-7.83;100.00;99331.16;6324709;28;20068;-68
2022/01/10 03:19:33;;;;;;;48.60;19.00;;;;;;;-7.86;100.00;99331.19;6322117;28;20475;-67
2022/01/10 03:22:34;;;;;;;40.40;19.00;;;;;;;-7.93;100.00;99326.94;6323476;28;20032;-72
2022/01/10 03:25:35;;;;;;;43.72;19.13;;;;;;;-7.81;100.00;99329.47;6323203;28;20395;-72
2022/01/10 03:28:36;;;;;;;47.13;19.95;;;;;;;-7.73;100.00;99329.50;6324427;28;20040;-72
2022/01/10 03:31:37;;;;;;;43.83;18.95;;;;;;;-7.70;100.00;99335.44;6324438;28;20048;-71
2022/01/10 03:34:39;;;;;;;39.25;16.30;;;;;;;-7.68;100.00;99343.00;6323130;28;20051;-71
2022/01/10 03:37:40;;;;;;;41.20;17.88;;;;;;;-7.70;100.00;99347.22;6324177;28;20044;-71
2022/01/10 03:40:41;;;;;;;37.30;17.73;;;;;;;-7.74;100.00;99343.00;6324244;28;20048;-71
2022/01/10 03:43:41;;;;;;;40.67;18.13;;;;;;;-7.79;100.00;99348.06;6323921;28;20036;-71
2022/01/10 03:46:42;;;;;;;30.55;14.80;;;;;;;-7.84;100.00;99346.34;6323785;28;20036;-67
2022/01/10 03:49:43;;;;;;;26.90;14.30;;;;;;;-7.83;100.00;99356.50;6322447;28;20496;-67
2022/01/10 03:52:44;;;;;;;36.20;18.10;;;;;;;-7.95;100.00;99357.34;6322792;28;20048;-68
2022/01/10 03:55:45;;;;;;;33.03;16.67;;;;;;;-8.03;100.00;99348.00;6339712;28;20105;-71
2022/01/10 03:58:46;;;;;;;34.95;17.35;;;;;;;-8.14;100.00;99358.09;6322524;28;20048;-71
2022/01/10 04:01:46;;;;;;;31.65;13.75;;;;;;;-8.13;100.00;99355.59;6322592;28;20181;-71
2022/01/10 04:04:47;;;;;;;33.42;17.08;;;;;;;-8.25;100.00;99350.47;6322258;28;20044;-72
2022/01/10 04:07:48;;;;;;;35.63;16.08;;;;;;;-8.28;100.00;99354.69;6339423;28;20039;-71
2022/01/10 04:10:49;;;;;;;37.90;17.27;;;;;;;-8.13;100.00;99362.34;6323521;28;20071;-72
2022/01/10 04:13:50;;;;;;;34.33;16.88;;;;;;;-8.05;100.00;99359.81;6321996;28;20056;-72
2022/01/10 04:16:50;;;;;;;41.13;19.15;;;;;;;-8.07;100.00;99357.31;6323176;28;20036;-68
2022/01/10 04:19:51;;;;;;;36.45;16.42;;;;;;;-8.06;100.00;99358.13;6305193;28;20452;-67
2022/01/10 04:22:52;;;;;;;45.28;19.35;;;;;;;-8.01;100.00;99364.91;6321981;28;20102;-72
2022/01/10 04:25:53;;;;;;;43.05;20.00;;;;;;;-7.98;100.00;99371.66;6323122;28;20044;-71
2022/01/10 04:28:53;;;;;;;39.10;17.92;;;;;;;-8.05;100.00;99367.41;6322726;28;20044;-72
2022/01/10 04:31:54;;;;;;;39.33;17.60;;;;;;;-8.07;100.00;99375.03;6322973;28;20123;-68
2022/01/10 04:34:55;;;;;;;34.30;15.93;;;;;;;-7.99;100.00;99377.56;6323114;28;20052;-72
2022/01/10 04:37:56;;;;;;;37.33;17.42;;;;;;;-8.02;100.00;99387.69;6288259;28;20104;-72
2022/01/10 04:40:57;;;;;;;40.88;18.08;;;;;;;-8.08;99.52;99388.50;6305080;28;20098;-67
2022/01/10 04:43:58;;;;;;;35.10;17.20;;;;;;;-8.00;98.76;99388.53;6321612;28;20044;-68
2022/01/10 04:46:59;;;;;;;41.75;18.50;;;;;;;-8.21;100.00;99391.84;6321373;28;20032;-68
2022/01/10 04:53:03;;;;;;;47.70;18.30;;;;;;;-8.19;100.00;99396.06;6321643;28;20353;-68
2022/01/10 04:56:04;;;;;;;35.13;15.98;;;;;;;-8.26;100.00;99399.41;6304571;28;20044;-71
2022/01/10 04:59:05;;;;;;;40.60;14.77;;;;;;;-8.28;100.00;99387.59;6322215;28;20044;-71
2022/01/10 05:02:06;;;;;;;41.03;18.38;;;;;;;-8.25;100.00;99395.19;6322352;28;20044;-71
2022/01/10 05:05:07;;;;;;;30.20;15.02;;;;;;;-8.20;100.00;99396.91;6322049;28;20052;-71
2022/01/10 05:08:09;;;;;;;40.20;18.83;;;;;;;-8.11;100.00;99401.16;6338045;28;20131;-71
2022/01/10 05:11:10;;;;;;;41.03;17.60;;;;;;;-8.11;100.00;99406.22;6322212;28;20071;-71
2022/01/10 05:14:12;;;;;;;47.50;18.85;;;;;;;-8.01;100.00;99402.91;6320128;28;20479;-71
2022/01/10 05:17:13;;;;;;;45.72;18.85;;;;;;;-7.97;100.00;99403.72;6320661;28;20040;-72
2022/01/10 05:20:14;;;;;;;45.95;20.48;;;;;;;-8.01;100.00;99413.03;6303941;28;20051;-67
2022/01/10 05:23:15;;;;;;;44.90;19.08;;;;;;;-8.05;99.19;99416.38;6322083;28;20044;-72
2022/01/10 05:26:16;;;;;;;42.40;19.33;;;;;;;-8.15;100.00;99418.03;6320495;28;20052;-67
2022/01/10 05:29:17;;;;;;;56.15;22.20;;;;;;;-8.28;100.00;99418.78;6320697;28;20042;-67
2022/01/10 05:32:17;;;;;;;49.05;19.30;;;;;;;-8.26;100.00;99422.19;6287118;28;20576;-67
2022/01/10 05:35:18;;;;;;;40.20;19.67;;;;;;;-8.28;100.00;99426.38;6303905;28;20048;-72
2022/01/10 05:38:19;;;;;;;44.97;19.00;;;;;;;-8.26;100.00;99434.00;6321552;28;20044;-68
2022/01/10 05:41:22;;;;;;;42.38;17.45;;;;;;;-8.29;100.00;99439.06;6319856;28;20123;-72
2022/01/10 05:44:22;;;;;;;;;;;;;;;-8.24;100.00;99437.38;6319468;28;20040;-67
2022/01/10 05:47:23;;;;;;;25.70;14.00;;;;;;;-8.28;100.00;99444.09;6320662;28;19973;-72
2022/01/10 05:50:34;;;;;;;28.83;14.50;;;;;;;-8.15;100.00;99440.81;6319475;28;20104;-71
2022/01/10 05:53:34;;;;;;;37.22;17.67;;;;;;;-8.14;100.00;99439.94;6320343;28;20036;-72
2022/01/10 05:56:35;;;;;;;40.00;16.50;;;;;;;-8.14;100.00;99437.41;6319994;28;20423;-72
2022/01/10 05:59:36;;;;;;;26.88;12.60;;;;;;;-8.11;100.00;99445.03;6319423;28;20032;-68
2022/01/10 06:02:37;;;;;;;37.33;17.17;;;;;;;-8.08;100.00;99441.69;6320361;28;20466;-68
2022/01/10 06:05:38;;;;;;;47.45;19.15;;;;;;;-8.01;100.00;99447.59;6318217;28;20065;-72
2022/01/10 06:08:38;;;;;;;44.42;19.60;;;;;;;-7.97;100.00;99445.13;6319326;28;20119;-68
2022/01/10 06:11:40;;;;;;;35.75;16.77;;;;;;;-7.85;100.00;99458.66;6319022;28;20414;-67
2022/01/10 06:14:40;;;;;;;40.00;18.15;;;;;;;-7.87;100.00;99451.03;6302761;28;20422;-68
2022/01/10 06:17:41;;;;;;;45.47;19.23;;;;;;;-7.90;100.00;99448.50;6319438;28;20059;-72
2022/01/10 06:20:42;;;;;;;40.90;19.85;;;;;;;-7.88;100.00;99456.97;6318826;28;20127;-68
2022/01/10 06:23:43;;;;;;;48.72;21.48;;;;;;;-7.88;100.00;99451.06;6320037;28;20051;-68
2022/01/10 06:26:43;;;;;;;43.90;20.23;;;;;;;-7.87;100.00;99465.41;6320296;28;20048;-72
2022/01/10 06:29:44;;;;;;;46.00;19.55;;;;;;;-7.88;100.00;99464.56;6302597;28;20079;-68
2022/01/10 06:32:45;;;;;;;37.65;18.23;;;;;;;-7.97;100.00;99469.56;6320271;28;20047;-67
2022/01/10 06:35:46;;;;;;;38.63;17.92;;;;;;;-8.11;100.00;99472.91;6320447;28;20407;-69
2022/01/10 06:38:47;;;;;;;45.58;18.95;;;;;;;-8.20;100.00;99477.06;6300136;28;20036;-72
2022/01/10 06:41:48;;;;;;;34.78;17.20;;;;;;;-8.32;100.00;99477.81;6320792;28;20090;-68
2022/01/10 06:44:48;;;;;;;43.80;18.98;;;;;;;-8.37;100.00;99485.41;6318044;28;20063;-71
2022/01/10 06:47:50;;;;;;;54.13;22.25;;;;;;;-8.41;100.00;99491.31;6316971;28;20529;-72
2022/01/10 06:50:50;;;;;;;55.13;26.02;;;;;;;-8.24;100.00;99490.53;6318755;28;20080;-71
2022/01/10 06:53:51;;;;;;;115.45;44.13;;;;;;;-8.19;100.00;99493.94;6321446;28;20044;-72
2022/01/10 06:56:52;;;;;;;86.95;34.03;;;;;;;-8.31;99.35;99493.03;6315648;28;20036;-73
2022/01/10 06:59:53;;;;;;;61.42;27.15;;;;;;;-8.31;99.98;99495.56;6321147;28;20501;-68
2022/01/10 07:02:53;;;;;;;58.75;21.52;;;;;;;-8.41;100.00;99503.13;6320402;28;20112;-68
2022/01/10 07:05:54;;;;;;;52.75;20.23;;;;;;;-8.27;100.00;99501.50;6321392;28;20433;-68
2022/01/10 07:08:55;;;;;;;45.25;18.83;;;;;;;-8.56;100.00;99514.81;6289014;28;20093;-68
2022/01/10 07:11:56;;;;;;;48.05;21.55;;;;;;;-8.63;100.00;99507.16;6304516;28;20048;-73
2022/01/10 07:14:56;;;;;;;43.40;19.92;;;;;;;-8.60;99.83;99518.16;6304862;28;20078;-74
2022/01/10 07:17:57;;;;;;;36.30;17.50;;;;;;;-8.46;99.17;99522.47;6321962;28;20047;-73
2022/01/10 07:20:58;;;;;;;46.30;20.98;;;;;;;-8.39;99.37;99532.63;6304060;28;20051;-74
2022/01/10 07:23:59;;;;;;;44.05;19.38;;;;;;;-8.41;100.00;99541.91;6320758;28;20047;-74
2022/01/10 07:27:01;;;;;;;42.55;19.30;;;;;;;-8.35;100.00;99536.03;6321280;28;20048;-73
2022/01/10 07:30:04;;;;;;;40.65;16.65;;;;;;;-8.30;100.00;99539.41;6322247;28;20060;-67
2022/01/10 07:33:05;;;;;;;41.70;17.40;;;;;;;-8.11;100.00;99541.25;6322806;28;20050;-73
2022/01/10 07:36:06;;;;;;;41.75;17.90;;;;;;;-7.93;100.00;99542.19;6288664;28;20044;-68
2022/01/10 07:39:07;;;;;;;37.08;15.82;;;;;;;-7.70;100.00;99544.81;6304143;28;20052;-72
2022/01/10 07:42:08;;;;;;;44.40;18.90;;;;;;;-7.46;100.00;99548.31;6322459;28;20040;-73
2022/01/10 07:45:10;;;;;;;43.83;18.77;;;;;;;-7.29;100.00;99546.69;6312569;28;20048;-74
2022/01/10 07:48:11;;;;;;;46.15;19.02;;;;;;;-7.05;100.00;99543.38;6316688;28;20055;-75
2022/01/10 07:51:12;;;;;;;47.65;21.15;;;;;;;-6.72;100.00;99545.09;6300893;28;20040;-74
2022/01/10 07:54:33;;;;;;;47.05;20.90;;;;;;;-6.82;100.00;99542.56;6320675;28;20055;-68
2022/01/10 07:57:34;;;;;;;45.35;19.33;;;;;;;-6.69;100.00;99544.28;6303396;28;20051;-74
2022/01/10 08:00:35;;;;;;;33.05;14.98;;;;;;;-6.61;100.00;99537.53;6321422;28;20066;-68
2022/01/10 08:03:36;;;;;;;30.58;15.43;;;;;;;-6.46;100.00;99539.22;6320004;28;20040;-68
2022/01/10 08:06:56;;;;;;;40.05;17.20;;;;;;;-5.85;100.00;99534.84;6320563;28;20064;-69
2022/01/10 08:10:06;;;;;;;33.10;15.23;;;;;;;-5.59;100.00;99550.84;6320387;28;20044;-74
2022/01/10 08:13:26;;;;;;;34.05;15.02;;;;;;;-5.22;100.00;99554.94;6321162;28;20056;-69
2022/01/10 08:16:27;;;;;;;31.63;15.13;;;;;;;-4.88;100.00;99558.13;6322145;28;20043;-68
2022/01/10 08:19:30;;;;;;;30.92;14.73;;;;;;;-4.76;100.00;99562.31;6320841;28;20051;-69
2022/01/10 08:22:31;;;;;;;33.78;14.82;;;;;;;-4.51;99.91;99570.63;6322477;28;20036;-73
2022/01/10 08:25:32;;;;;;;37.05;16.52;;;;;;;-4.38;99.62;99571.38;6322093;28;20403;-73
2022/01/10 08:28:33;;;;;;;35.53;15.05;;;;;;;-4.17;98.00;99566.09;6320907;28;20517;-69
2022/01/10 08:31:34;;;;;;;38.17;16.75;;;;;;;-3.95;95.83;99565.91;6321833;28;20047;-69
2022/01/10 08:34:35;;;;;;;36.63;14.93;;;;;;;-3.88;95.91;99570.91;6302870;28;20055;-73
2022/01/10 08:37:36;;;;;;;33.90;16.70;;;;;;;-3.49;93.40;99580.72;6320396;28;20506;-70
2022/01/10 08:40:40;;;;;;;35.03;16.02;;;;;;;-3.70;94.37;99571.59;6317448;28;20044;-70
2022/01/10 08:43:41;;;;;;;29.85;12.10;;;;;;;-3.56;93.54;99582.50;6320640;28;20036;-73
2022/01/10 08:46:42;;;;;;;28.95;13.32;;;;;;;-3.15;91.95;99591.38;6320107;28;20043;-73
2022/01/10 08:49:43;;;;;;;26.20;11.38;;;;;;;-3.06;89.87;99587.84;6320005;28;20462;-70
2022/01/10 08:52:44;;;;;;;33.13;15.23;;;;;;;-2.84;89.54;99590.97;6321696;28;20064;-73
2022/01/10 08:55:44;;;;;;;25.88;13.30;;;;;;;-2.54;88.20;99583.72;6319896;28;20048;-69
2022/01/10 08:58:45;;;;;;;27.83;14.68;;;;;;;-2.64;89.47;99577.91;6320416;28;20036;-69
2022/01/10 09:01:47;;;;;;;26.05;9.88;;;;;;;-2.63;87.06;99590.66;6319798;28;20464;-74
2022/01/10 09:04:48;;;;;;;21.55;11.77;;;;;;;-2.59;86.82;99588.03;6320709;28;20418;-73
2022/01/10 09:07:51;;;;;;;35.60;15.75;;;;;;;-2.04;84.85;99592.28;6320794;28;20102;-73
2022/01/10 09:10:53;;;;;;;35.38;17.15;;;;;;;-1.84;84.30;99594.50;6320214;28;20036;-68
2022/01/10 09:13:54;;;;;;;33.72;14.57;;;;;;;-1.90;82.79;99598.00;6318558;28;20431;-69
2022/01/10 09:16:55;;;;;;;20.60;10.75;;;;;;;-2.15;82.90;99587.34;6300819;28;20047;-73
2022/01/10 09:19:56;;;;;;;37.70;16.88;;;;;;;-1.92;83.53;99576.72;6318971;28;20047;-68
2022/01/10 09:22:57;;;;;;;33.97;15.07;;;;;;;-2.10;83.42;99580.47;6318703;28;20044;-68
2022/01/10 09:25:57;;;;;;;34.72;15.55;;;;;;;-1.79;83.05;99574.81;6318941;28;20063;-68
2022/01/10 09:28:59;;;;;;;32.58;16.05;;;;;;;-1.88;84.13;99575.78;6301976;28;20040;-68
2022/01/10 09:32:00;;;;;;;37.77;16.93;;;;;;;-1.51;80.71;99576.84;6319217;28;20082;-68
2022/01/10 09:35:01;;;;;;;40.50;16.70;;;;;;;-1.22;81.01;99577.09;6302580;28;20280;-72
2022/01/10 09:38:02;;;;;;;36.83;15.95;;;;;;;-1.05;79.86;99581.88;6320614;28;20047;-72
2022/01/10 09:41:03;;;;;;;30.88;15.82;;;;;;;-0.73;79.41;99575.22;6302873;28;20484;-73
2022/01/10 09:44:06;;;;;;;39.97;16.40;;;;;;;-0.81;79.34;99577.94;6320797;28;20056;-73
2022/01/10 09:47:07;;;;;;;32.88;16.73;;;;;;;-0.52;78.88;99580.72;6320660;28;20044;-73
2022/01/10 09:50:10;;;;;;;30.17;13.85;;;;;;;-0.86;79.51;99579.75;6319133;28;20043;-73
2022/01/10 09:53:12;;;;;;;35.00;15.07;;;;;;;-1.06;81.00;99571.66;6319242;28;20122;-72
2022/01/10 09:56:13;;;;;;;26.27;12.70;;;;;;;-0.80;78.93;99578.78;6317286;28;20044;-73
2022/01/10 09:59:15;;;;;;;35.17;15.23;;;;;;;-0.61;79.14;99590.31;6319378;28;20349;-73
2022/01/10 10:02:16;;;;;;;31.17;12.88;;;;;;;-0.62;77.67;99588.63;6318181;28;20056;-73
2022/01/10 10:05:19;;;;;;;23.98;11.38;;;;;;;-0.97;78.48;99586.81;6301278;28;20541;-68
2022/01/10 10:08:25;;;;;;;27.83;13.90;;;;;;;-0.65;76.91;99591.25;6301699;28;20047;-69
2022/01/10 10:11:46;;;;;;;31.58;13.80;;;;;;;-0.35;77.03;99590.56;6318717;28;20166;-68
2022/01/10 10:14:48;;;;;;;22.30;11.68;;;;;;;-0.45;76.83;99593.38;6317032;28;20048;-68
2022/01/10 10:17:49;;;;;;;33.25;13.40;;;;;;;-0.61;77.04;99589.47;6300316;28;20093;-68
2022/01/10 10:20:50;;;;;;;35.72;13.82;;;;;;;-0.25;77.24;99594.59;6316946;28;20036;-68
2022/01/10 10:23:50;;;;;;;27.75;13.93;;;;;;;-0.02;76.29;99600.03;6315685;28;20039;-68
2022/01/10 10:26:52;;;;;;;33.95;14.55;;;;;;;-0.06;76.23;99602.72;6283251;28;20050;-68
2022/01/10 10:29:52;;;;;;;30.23;13.70;;;;;;;0.20;77.09;99596.91;6306046;28;20048;-68
2022/01/10 10:33:20;;;;;;;25.02;11.68;;;;;;;0.34;74.63;99602.50;6323007;28;20055;-68
2022/01/10 10:36:21;;;;;;;27.50;13.75;;;;;;;0.66;74.23;99602.53;6323693;28;20059;-68
2022/01/10 10:39:24;;;;;;;23.80;11.68;;;;;;;0.53;73.02;99608.00;6322632;28;20468;-68
2022/01/10 10:42:29;;;;;;;31.90;13.10;;;;;;;0.21;75.25;99603.72;6322375;28;20058;-68
2022/01/10 10:45:29;;;;;;;28.60;13.73;;;;;;;0.61;73.32;99605.22;6324641;28;20031;-68
2022/01/10 10:48:34;;;;;;;26.63;13.40;;;;;;;0.78;72.77;99618.47;6320638;28;20078;-68
2022/01/10 10:51:36;;;;;;;32.33;14.10;;;;;;;1.10;72.60;99615.84;6321986;28;20431;-68
2022/01/10 10:54:38;;;;;;;20.63;9.43;;;;;;;0.93;70.52;99624.06;6322585;28;20074;-69
2022/01/10 10:57:40;;;;;;;29.33;14.03;;;;;;;1.02;72.23;99618.63;6321213;28;20040;-69
2022/01/10 11:00:41;;;;;;;21.05;9.50;;;;;;;0.65;72.05;99624.81;6323120;28;20048;-67
2022/01/10 11:03:42;;;;;;;30.08;14.45;;;;;;;0.62;74.24;99629.16;6322529;28;20040;-67
2022/01/10 11:06:43;;;;;;;31.33;14.13;;;;;;;1.09;72.58;99629.56;6322531;28;20491;-67
2022/01/10 11:09:44;;;;;;;26.38;11.73;;;;;;;0.94;73.22;99625.72;6320338;28;20040;-67
2022/01/10 11:12:52;;;;;;;30.27;13.32;;;;;;;0.76;73.75;99625.38;6321102;28;20043;-66
2022/01/10 11:15:53;;;;;;;32.13;14.57;;;;;;;0.59;75.95;99622.41;6323860;28;20090;-67
2022/01/10 11:18:55;;;;;;;26.03;12.47;;;;;;;0.83;73.97;99626.03;6317786;28;20069;-67
2022/01/10 11:22:04;;;;;;;34.47;14.90;;;;;;;1.05;75.81;99620.28;6319589;28;20281;-67
2022/01/10 11:25:17;;;;;;;28.25;12.98;;;;;;;1.29;73.62;99613.56;6320886;28;20063;-68
2022/01/10 11:28:23;;;;;;;30.05;14.43;;;;;;;1.48;75.85;99616.44;6322015;28;20047;-72
2022/01/10 11:31:28;;;;;;;26.35;13.65;;;;;;;1.26;72.80;99617.09;6322983;28;20123;-72
2022/01/10 11:34:29;;;;;;;25.48;12.85;;;;;;;1.68;73.98;99616.66;6320589;28;20039;-72
2022/01/10 11:37:32;;;;;;;32.50;14.27;;;;;;;1.66;72.06;99620.16;6322194;28;20245;-72
2022/01/10 11:40:34;;;;;;;24.55;11.82;;;;;;;1.65;72.01;99618.47;6319516;28;20491;-72
2022/01/10 11:43:44;;;;;;;30.05;13.60;;;;;;;1.59;72.70;99622.94;6321241;28;20070;-67
2022/01/10 11:46:51;;;;;;;23.75;12.73;;;;;;;1.55;73.96;99611.06;6320893;28;20480;-67
2022/01/10 11:50:27;;;;;;;23.13;10.70;;;;;;;1.34;74.22;99616.84;6321663;28;20052;-71
2022/01/10 11:53:30;;;;;;;16.48;8.02;;;;;;;1.20;75.27;99612.13;6322018;28;20404;-72
2022/01/10 11:56:33;;;;;;;19.90;10.40;;;;;;;1.17;75.31;99613.06;6320940;28;20055;-67
2022/01/10 11:59:38;;;;;;;24.23;11.00;;;;;;;1.47;76.26;99625.03;6320105;28;20040;-71
2022/01/10 12:02:41;;;;;;;20.40;9.80;;;;;;;1.37;74.88;99622.72;6321250;28;20384;-72
2022/01/10 12:05:42;;;;;;;23.17;11.82;;;;;;;1.44;75.50;99625.13;6320004;28;20039;-68
2022/01/10 12:08:42;;;;;;;17.10;9.00;;;;;;;1.07;76.40;99636.47;6321372;28;20434;-68
2022/01/10 12:11:45;;;;;;;20.30;10.60;;;;;;;1.36;77.43;99628.78;6319731;28;20491;-72
2022/01/10 12:14:48;;;;;;;21.85;10.23;;;;;;;1.13;78.89;99619.19;6320446;28;20078;-68
2022/01/10 12:17:49;;;;;;;23.55;11.38;;;;;;;1.25;78.77;99627.41;6319896;28;20044;-67
2022/01/10 12:20:53;;;;;;;23.83;11.30;;;;;;;1.45;77.17;99631.97;6319473;28;20039;-68
2022/01/10 12:23:54;;;;;;;15.48;8.45;;;;;;;1.05;78.05;99638.25;6319940;28;20044;-68
2022/01/10 12:26:56;;;;;;;21.92;10.52;;;;;;;1.29;79.47;99629.00;6321636;28;20048;-68
2022/01/10 12:29:56;;;;;;;23.50;9.37;;;;;;;1.41;77.59;99626.91;6320428;28;20044;-68
2022/01/10 12:33:03;;;;;;;18.60;9.65;;;;;;;1.26;78.92;99635.06;6320345;28;20304;-72
2022/01/10 12:36:05;;;;;;;19.30;10.15;;;;;;;1.29;79.33;99629.84;6320495;28;20036;-75
2022/01/10 12:39:17;;;;;;;9.75;5.65;;;;;;;1.20;78.10;99636.09;6322015;28;20048;-72
2022/01/10 12:42:18;;;;;;;19.58;10.13;;;;;;;1.51;80.43;99645.47;6321475;28;20444;-71
2022/01/10 12:45:19;;;;;;;21.02;10.40;;;;;;;1.31;77.56;99655.50;6320663;28;20484;-70
2022/01/10 12:48:24;;;;;;;23.55;10.82;;;;;;;1.47;78.95;99653.31;6319701;28;20167;-74
2022/01/10 12:51:24;;;;;;;30.27;14.20;;;;;;;1.64;77.85;99661.34;6318312;28;20063;-71
2022/01/10 12:54:28;;;;;;;19.75;11.00;;;;;;;1.53;79.20;99671.97;6320160;28;20048;-74
2022/01/10 12:57:29;;;;;;;18.45;9.20;;;;;;;1.16;81.31;99677.34;6320482;28;20036;-75
2022/01/10 13:00:31;;;;;;;16.75;9.68;;;;;;;1.23;80.70;99681.41;6320998;28;20044;-75
2022/01/10 13:03:32;;;;;;;21.58;10.55;;;;;;;1.43;80.92;99690.31;6319648;28;20470;-75
2022/01/10 13:06:42;;;;;;;19.58;9.43;;;;;;;1.41;79.76;99705.75;6302485;28;20036;-76
2022/01/10 13:09:44;;;;;;;12.75;6.20;;;;;;;1.29;79.05;99704.38;6320529;28;20448;-76
2022/01/10 13:12:54;;;;;;;;;;;;;;;1.18;79.58;99719.28;6321547;28;20036;-75
2022/01/10 13:15:55;;;;;;;14.27;8.00;;;;;;;1.30;81.76;99720.66;6320138;28;19927;-75
2022/01/10 13:18:58;;;;;;;16.48;8.35;;;;;;;1.23;80.35;99727.69;6318367;28;20036;-75
2022/01/10 13:22:04;;;;;;;16.88;8.00;;;;;;;1.13;82.14;99716.84;6318942;28;20048;-75
2022/01/10 13:25:10;;;;;;;22.05;10.02;;;;;;;1.22;83.74;99728.59;6318602;28;20040;-75
2022/01/10 13:28:13;;;;;;;20.42;9.18;;;;;;;1.04;83.16;99732.50;6320165;28;20495;-75
2022/01/10 13:31:14;;;;;;;16.20;8.20;;;;;;;1.07;84.86;99749.53;6320855;28;20119;-75
2022/01/10 13:34:25;;;;;;;11.77;6.25;;;;;;;0.85;83.60;99741.59;6319478;28;20067;-75
2022/01/10 13:37:27;;;;;;;20.43;9.87;;;;;;;0.81;84.48;99745.94;6298312;28;20048;-76
2022/01/10 13:40:43;;;;;;;15.45;8.25;;;;;;;0.68;86.11;99748.00;6319254;28;20313;-72
2022/01/10 13:43:44;;;;;;;17.67;7.95;;;;;;;0.62;86.78;99747.28;6319384;28;20043;-72
2022/01/10 13:46:45;;;;;;;17.55;8.73;;;;;;;0.74;87.80;99747.84;6320011;28;20491;-72
2022/01/10 13:49:46;;;;;;;19.00;8.57;;;;;;;0.93;85.49;99757.63;6320234;28;20076;-72
2022/01/10 13:53:07;;;;;;;16.83;7.85;;;;;;;0.74;85.96;99758.13;6317828;28;20071;-71
2022/01/10 13:56:18;;;;;;;23.02;10.00;;;;;;;0.93;85.97;99765.34;6320253;28;20044;-74
2022/01/10 13:59:19;;;;;;;22.42;9.40;;;;;;;0.98;86.36;99769.47;6320502;28;20040;-75
2022/01/10 14:02:20;;;;;;;15.10;8.15;;;;;;;0.79;86.53;99761.41;6320078;28;20064;-75
2022/01/10 14:05:31;;;;;;;18.25;10.05;;;;;;;0.89;89.37;99780.00;6324200;28;20491;-74
2022/01/10 14:08:33;;;;;;;18.75;9.20;;;;;;;0.97;87.27;99779.81;6323393;28;20108;-75
2022/01/10 14:11:37;;;;;;;13.52;7.93;;;;;;;0.85;86.64;99777.53;6323145;28;20040;-75